createdAt,value
2022-09-28T00:01:24.670Z,6.94
2022-09-28T00:03:58.294Z,6.93
2022-09-28T00:06:31.068Z,6.91
2022-09-28T00:09:04.173Z,6.92
2022-09-28T00:11:36.598Z,6.93
2022-09-28T00:14:09.324Z,6.93
2022-09-28T00:16:44.252Z,6.93
2022-09-28T00:19:16.933Z,6.94
2022-09-28T00:21:49.314Z,6.93
2022-09-28T00:24:26.682Z,6.96
2022-09-28T00:27:01.839Z,6.96
2022-09-28T00:29:36.097Z,6.95
2022-09-28T00:32:12.125Z,6.87
2022-09-28T00:34:50.053Z,6.83
2022-09-28T00:37:22.484Z,6.75
2022-09-28T00:39:54.950Z,6.72
2022-09-28T00:42:28.302Z,6.69
2022-09-28T00:45:02.437Z,6.73
2022-09-28T00:47:40.570Z,6.78
2022-09-28T00:50:26.346Z,6.78
2022-09-28T00:53:14.532Z,6.84
2022-09-28T00:55:52.091Z,6.87
2022-09-28T00:58:31.067Z,6.88
2022-09-28T01:01:04.867Z,6.85
2022-09-28T01:03:37.806Z,6.80
2022-09-28T01:06:10.710Z,6.78
2022-09-28T01:08:45.849Z,6.81
2022-09-28T01:11:20.706Z,6.84
2022-09-28T01:13:56.129Z,6.87
2022-09-28T01:16:28.621Z,6.90
2022-09-28T01:19:07.188Z,6.95
2022-09-28T01:21:58.546Z,6.63
2022-09-28T01:24:46.350Z,7.04
2022-09-28T01:27:34.458Z,7.09
2022-09-28T01:30:16.422Z,7.10
2022-09-28T01:33:11.192Z,7.11
2022-09-28T01:36:15.945Z,7.11
2022-09-28T01:39:20.762Z,7.14
2022-09-28T01:41:56.662Z,7.16
2022-09-28T01:44:30.775Z,7.16
2022-09-28T01:47:04.806Z,7.14
2022-09-28T01:49:40.289Z,7.17
2022-09-28T01:52:24.976Z,7.19
2022-09-28T01:55:04.732Z,7.21
2022-09-28T01:57:40.329Z,7.25
2022-09-28T02:00:13.989Z,7.29
2022-09-28T02:02:56.246Z,7.32
2022-09-28T02:05:36.756Z,7.37
2022-09-28T02:08:11.382Z,7.39
2022-09-28T02:10:46.650Z,7.43
2022-09-28T02:13:25.987Z,7.42
2022-09-28T02:16:03.148Z,7.43
2022-09-28T02:18:38.655Z,7.42
2022-09-28T02:21:15.072Z,7.41
2022-09-28T02:23:57.864Z,7.38
2022-09-28T02:26:38.640Z,7.37
2022-09-28T02:29:14.720Z,7.38
2022-09-28T02:31:49.175Z,7.38
2022-09-28T02:34:21.968Z,7.34
2022-09-28T02:36:54.540Z,7.31
2022-09-28T02:39:29.396Z,7.22
2022-09-28T02:42:21.198Z,7.15
2022-09-28T02:45:12.272Z,7.04
2022-09-28T02:48:02.477Z,6.95
2022-09-28T02:50:43.099Z,6.87
2022-09-28T02:53:25.659Z,6.88
2022-09-28T02:56:24.247Z,6.90
2022-09-28T02:59:04.226Z,6.87
2022-09-28T03:01:39.358Z,6.90
2022-09-28T03:04:30.926Z,6.80
2022-09-28T03:07:06.515Z,6.73
2022-09-28T03:09:55.626Z,6.69
2022-09-28T03:12:30.940Z,6.68
2022-09-28T03:15:13.505Z,6.64
2022-09-28T03:17:48.566Z,6.67
2022-09-28T03:20:20.943Z,6.64
2022-09-28T03:23:19.750Z,6.66
2022-09-28T03:25:46.450Z,6.71
2022-09-28T03:28:18.856Z,6.71
2022-09-28T03:30:51.283Z,6.71
2022-09-28T03:33:24.510Z,6.71
2022-09-28T03:35:56.857Z,6.71
2022-09-28T03:38:29.121Z,6.71
2022-09-28T03:41:03.170Z,6.72
2022-09-28T03:43:35.617Z,6.74
2022-09-28T03:46:08.006Z,6.76
2022-09-28T03:48:41.813Z,6.80
2022-09-28T03:51:16.584Z,6.84
2022-09-28T03:56:30.172Z,6.78
2022-09-28T03:59:03.279Z,6.72
2022-09-28T04:01:35.593Z,6.68
2022-09-28T04:04:07.942Z,6.69
2022-09-28T04:06:40.331Z,6.66
2022-09-28T04:09:12.696Z,6.65
2022-09-28T04:12:02.787Z,6.66
2022-09-28T04:14:38.536Z,6.68
2022-09-28T04:17:10.833Z,6.69
2022-09-28T04:19:45.491Z,6.70
2022-09-28T04:22:17.790Z,6.75
2022-09-28T04:24:50.453Z,6.78
2022-09-28T04:27:41.361Z,6.77
2022-09-28T04:30:16.447Z,6.74
2022-09-28T04:32:48.780Z,6.73
2022-09-28T04:35:21.169Z,6.74
2022-09-28T04:37:53.785Z,6.75
2022-09-28T04:40:27.135Z,6.75
2022-09-28T04:42:59.441Z,6.75
2022-09-28T04:45:31.903Z,6.75
2022-09-28T04:48:06.326Z,6.73
2022-09-28T04:50:38.677Z,6.73
2022-09-28T04:53:10.945Z,6.70
2022-09-28T04:55:43.280Z,6.68
2022-09-28T04:58:15.589Z,6.66
2022-09-28T05:00:49.322Z,6.59
2022-09-28T05:03:22.379Z,6.51
2022-09-28T05:05:55.225Z,6.48
2022-09-28T05:11:21.758Z,6.35
2022-09-28T05:13:56.700Z,6.30
2022-09-28T05:16:30.874Z,6.26
2022-09-28T05:19:03.378Z,6.24
2022-09-28T05:21:35.705Z,6.26
2022-09-28T05:24:08.759Z,6.26
2022-09-28T05:26:43.379Z,6.29
2022-09-28T05:29:15.779Z,6.36
2022-09-28T05:31:48.355Z,6.40
2022-09-28T05:34:21.168Z,6.39
2022-09-28T05:36:57.608Z,6.33
2022-09-28T05:39:30.089Z,6.29
2022-09-28T05:42:05.180Z,6.30
2022-09-28T05:44:38.386Z,6.27
2022-09-28T05:47:10.670Z,6.29
2022-09-28T05:49:45.374Z,6.28
2022-09-28T05:52:17.810Z,6.26
2022-09-28T05:54:50.120Z,6.28
2022-09-28T05:57:22.446Z,6.31
2022-09-28T06:02:35.894Z,6.48
2022-09-28T06:05:08.372Z,6.61
2022-09-28T06:07:40.629Z,6.75
2022-09-28T06:10:12.995Z,6.89
2022-09-28T06:12:47.919Z,6.99
2022-09-28T06:15:20.513Z,7.11
2022-09-28T06:18:03.273Z,7.11
2022-09-28T06:20:37.013Z,7.10
2022-09-28T06:23:10.094Z,7.06
2022-09-28T06:25:42.485Z,6.99
2022-09-28T06:28:17.659Z,6.98
2022-09-28T06:30:50.037Z,6.92
2022-09-28T06:33:22.400Z,6.91
2022-09-28T06:35:54.731Z,6.85
2022-09-28T06:38:27.258Z,6.79
2022-09-28T06:40:59.654Z,6.80
2022-09-28T06:43:34.614Z,6.86
2022-09-28T06:46:08.426Z,6.90
2022-09-28T06:48:40.829Z,6.93
2022-09-28T06:51:13.220Z,6.97
2022-09-28T06:53:46.269Z,7.01
2022-09-28T06:56:19.507Z,7.08
2022-09-28T06:58:51.842Z,7.15
2022-09-28T07:01:24.161Z,7.20
2022-09-28T07:03:58.007Z,7.24
2022-09-28T07:09:50.328Z,7.35
2022-09-28T07:12:25.373Z,7.52
2022-09-28T07:14:58.190Z,7.76
2022-09-28T07:17:32.010Z,8.11
2022-09-28T07:20:17.341Z,8.33
2022-09-28T07:22:54.903Z,8.37
2022-09-28T07:25:30.091Z,8.38
2022-09-28T07:28:03.282Z,8.48
2022-09-28T07:30:35.935Z,8.68
2022-09-28T07:33:10.627Z,8.90
2022-09-28T07:35:50.677Z,9.17
2022-09-28T07:38:23.264Z,9.32
2022-09-28T07:41:16.807Z,9.43
2022-09-28T07:43:49.814Z,9.34
2022-09-28T07:46:22.795Z,9.51
2022-09-28T07:48:55.126Z,9.70
2022-09-28T07:51:28.020Z,9.90
2022-09-28T07:54:00.302Z,10.03
2022-09-28T07:56:34.795Z,10.21
2022-09-28T07:59:07.718Z,10.26
2022-09-28T08:01:40.248Z,10.46
2022-09-28T08:04:12.557Z,10.39
2022-09-28T08:06:44.916Z,10.59
2022-09-28T08:09:17.273Z,10.82
2022-09-28T08:19:18.236Z,11.27
2022-09-28T08:21:50.834Z,11.50
2022-09-28T08:24:24.660Z,11.51
2022-09-28T08:26:57.043Z,11.67
2022-09-28T08:29:31.853Z,11.89
2022-09-28T08:32:08.177Z,11.90
2022-09-28T08:34:41.223Z,12.05
2022-09-28T08:37:13.543Z,12.42
2022-09-28T08:39:46.031Z,12.40
2022-09-28T08:42:33.799Z,12.41
2022-09-28T08:45:07.970Z,12.68
2022-09-28T08:48:06.883Z,12.69
2022-09-28T08:50:50.501Z,12.76
2022-09-28T08:53:28.910Z,12.97
2022-09-28T08:56:05.992Z,13.30
2022-09-28T08:58:41.235Z,13.51
2022-09-28T09:01:16.747Z,13.42
2022-09-28T09:03:49.571Z,13.64
2022-09-28T09:07:00.231Z,14.26
2022-09-28T09:09:51.006Z,14.78
2022-09-28T09:12:38.173Z,15.04
2022-09-28T09:15:18.717Z,15.22
2022-09-28T09:18:06.200Z,15.25
2022-09-28T09:20:52.045Z,14.73
2022-09-28T09:23:28.465Z,14.78
2022-09-28T09:26:04.940Z,15.11
2022-09-28T09:28:43.694Z,15.33
2022-09-28T09:31:35.412Z,15.10
2022-09-28T09:34:19.710Z,15.36
2022-09-28T09:36:52.105Z,15.52
2022-09-28T09:39:43.588Z,15.14
2022-09-28T09:42:22.164Z,14.12
2022-09-28T09:45:28.756Z,14.30
2022-09-28T09:48:07.301Z,15.02
2022-09-28T09:50:55.902Z,16.43
2022-09-28T09:54:00.877Z,16.83
2022-09-28T09:56:38.447Z,16.78
2022-09-28T09:59:23.002Z,16.16
2022-09-28T10:01:56.072Z,16.23
2022-09-28T10:04:48.797Z,15.73
2022-09-28T10:07:25.821Z,16.34
2022-09-28T10:09:59.034Z,17.25
2022-09-28T10:12:31.415Z,17.49
2022-09-28T10:15:08.283Z,17.15
2022-09-28T10:17:41.074Z,16.43
2022-09-28T10:20:14.942Z,15.89
2022-09-28T10:22:47.887Z,14.84
2022-09-28T10:25:21.322Z,14.09
2022-09-28T10:27:57.742Z,13.93
2022-09-28T10:30:32.031Z,15.09
2022-09-28T10:33:05.482Z,17.20
2022-09-28T10:35:42.210Z,17.55
2022-09-28T10:38:17.264Z,16.02
2022-09-28T10:40:51.143Z,14.53
2022-09-28T10:43:23.539Z,13.94
2022-09-28T10:46:02.879Z,13.78
2022-09-28T10:48:54.245Z,13.85
2022-09-28T10:51:54.919Z,14.15
2022-09-28T10:54:28.751Z,15.78
2022-09-28T10:57:01.273Z,17.11
2022-09-28T10:59:41.256Z,18.24
2022-09-28T11:02:19.822Z,17.67
2022-09-28T11:04:54.294Z,16.13
2022-09-28T11:07:31.983Z,15.18
2022-09-28T11:10:04.508Z,15.30
2022-09-28T11:12:44.049Z,14.99
2022-09-28T11:15:19.522Z,14.95
2022-09-28T11:17:51.896Z,14.96
2022-09-28T11:20:27.753Z,14.54
2022-09-28T11:23:15.732Z,14.12
2022-09-28T11:25:56.377Z,15.08
2022-09-28T11:28:31.782Z,17.51
2022-09-28T11:31:07.282Z,18.52
2022-09-28T11:33:41.406Z,17.60
2022-09-28T11:36:13.826Z,18.50
2022-09-28T11:38:47.416Z,19.66
2022-09-28T11:41:38.407Z,20.22
2022-09-28T11:44:23.013Z,20.65
2022-09-28T11:47:10.673Z,20.23
2022-09-28T11:49:44.203Z,20.91
2022-09-28T11:52:27.527Z,19.24
2022-09-28T11:55:06.837Z,17.13
2022-09-28T11:57:42.241Z,16.32
2022-09-28T12:00:16.647Z,15.84
2022-09-28T12:02:52.710Z,16.06
2022-09-28T12:05:37.579Z,17.28
2022-09-28T12:08:15.387Z,16.28
2022-09-28T12:10:48.877Z,15.93
2022-09-28T12:13:25.425Z,16.68
2022-09-28T12:16:32.318Z,17.91
2022-09-28T12:18:53.219Z,17.32
2022-09-28T12:21:38.215Z,16.14
2022-09-28T12:24:10.502Z,15.05
2022-09-28T12:26:54.365Z,14.33
2022-09-28T12:29:29.592Z,13.86
2022-09-28T12:32:01.979Z,13.63
2022-09-28T12:34:34.394Z,13.58
2022-09-28T12:37:17.721Z,14.13
2022-09-28T12:40:08.874Z,14.47
2022-09-28T12:42:42.353Z,14.70
2022-09-28T12:45:27.675Z,14.81
2022-09-28T12:48:07.741Z,14.87
2022-09-28T12:50:56.745Z,14.71
2022-09-28T12:53:29.887Z,14.60
2022-09-28T12:56:04.509Z,14.37
2022-09-28T12:59:00.476Z,14.13
2022-09-28T13:01:44.509Z,14.08
2022-09-28T13:04:41.418Z,14.07
2022-09-28T13:07:40.241Z,13.62
2022-09-28T13:10:32.603Z,12.72
2022-09-28T13:13:07.919Z,12.32
2022-09-28T13:15:43.258Z,12.15
2022-09-28T13:18:24.762Z,12.02
2022-09-28T13:21:16.031Z,11.88
2022-09-28T13:23:50.442Z,11.81
2022-09-28T13:26:24.014Z,11.81
2022-09-28T13:29:01.724Z,11.77
2022-09-28T13:31:37.171Z,11.68
2022-09-28T13:34:19.405Z,11.62
2022-09-28T13:37:10.930Z,11.54
2022-09-28T13:39:57.504Z,11.52
2022-09-28T13:42:45.050Z,11.55
2022-09-28T13:45:19.934Z,11.49
2022-09-28T13:47:57.921Z,11.50
2022-09-28T13:50:50.576Z,11.52
2022-09-28T13:53:23.898Z,11.49
2022-09-28T13:56:00.698Z,11.53
2022-09-28T13:58:33.210Z,11.61
2022-09-28T14:01:16.120Z,11.62
2022-09-28T14:04:07.202Z,11.65
2022-09-28T14:06:47.523Z,11.59
2022-09-28T14:09:26.842Z,11.67
2022-09-28T14:12:03.538Z,11.69
2022-09-28T14:14:48.926Z,11.65
2022-09-28T14:17:21.267Z,11.61
2022-09-28T14:20:02.074Z,11.61
2022-09-28T14:22:43.389Z,11.66
2022-09-28T14:25:17.149Z,11.70
2022-09-28T14:27:51.309Z,11.76
2022-09-28T14:30:26.168Z,11.87
2022-09-28T14:32:59.838Z,11.95
2022-09-28T14:35:33.994Z,12.04
2022-09-28T14:38:33.161Z,12.19
2022-09-28T14:41:19.542Z,12.34
2022-09-28T14:43:58.174Z,12.52
2022-09-28T14:46:32.252Z,12.78
2022-09-28T14:49:06.923Z,13.13
2022-09-28T14:51:42.299Z,13.79
2022-09-28T14:54:20.011Z,14.81
2022-09-28T14:56:52.456Z,16.08
2022-09-28T14:59:35.977Z,15.70
2022-09-28T15:02:08.327Z,15.17
2022-09-28T15:04:46.463Z,14.87
2022-09-28T15:07:20.047Z,14.54
2022-09-28T15:09:57.016Z,14.00
2022-09-28T15:12:30.905Z,13.72
2022-09-28T15:15:05.485Z,13.58
2022-09-28T15:17:40.291Z,13.62
2022-09-28T15:20:30.422Z,13.63
2022-09-28T15:23:04.161Z,13.53
2022-09-28T15:25:36.492Z,13.41
2022-09-28T15:28:19.634Z,13.38
2022-09-28T15:30:58.783Z,13.60
2022-09-28T15:33:51.285Z,13.84
2022-09-28T15:36:26.555Z,13.82
2022-09-28T15:39:07.367Z,13.72
2022-09-28T15:41:40.817Z,13.81
2022-09-28T15:44:13.144Z,13.72
2022-09-28T15:46:52.214Z,13.57
2022-09-28T15:49:26.773Z,13.43
2022-09-28T15:52:02.950Z,13.23
2022-09-28T15:54:39.778Z,13.12
2022-09-28T15:57:29.025Z,13.13
2022-09-28T16:00:01.761Z,13.11
2022-09-28T16:02:35.216Z,13.03
2022-09-28T16:05:28.077Z,12.95
2022-09-28T16:08:02.065Z,12.74
2022-09-28T16:10:35.058Z,12.64
2022-09-28T16:13:10.126Z,12.58
2022-09-28T16:15:42.825Z,12.53
2022-09-28T16:18:20.658Z,12.46
2022-09-28T16:20:54.462Z,12.34
2022-09-28T16:23:29.998Z,12.34
2022-09-28T16:26:08.686Z,12.33
2022-09-28T16:28:42.388Z,12.28
2022-09-28T16:31:14.812Z,12.25
2022-09-28T16:33:54.934Z,12.12
2022-09-28T16:36:29.852Z,12.01
2022-09-28T16:39:02.230Z,11.85
2022-09-28T16:41:34.524Z,11.82
2022-09-28T16:44:13.585Z,11.75
2022-09-28T16:46:46.132Z,11.72
2022-09-28T16:49:18.910Z,11.68
2022-09-28T16:51:51.380Z,11.71
2022-09-28T16:54:43.388Z,11.81
2022-09-28T16:57:16.180Z,11.80
2022-09-28T16:59:48.485Z,11.75
2022-09-28T17:05:20.217Z,11.75
2022-09-28T17:07:59.505Z,11.71
2022-09-28T17:13:45.933Z,11.41
2022-09-28T17:16:32.223Z,11.25
2022-09-28T17:19:20.220Z,11.02
2022-09-28T17:21:52.811Z,10.80
2022-09-28T17:24:25.395Z,10.58
2022-09-28T17:26:57.990Z,10.34
2022-09-28T17:29:30.331Z,10.10
2022-09-28T17:32:02.730Z,9.89
2022-09-28T17:34:36.282Z,9.70
2022-09-28T17:37:11.900Z,9.54
2022-09-28T17:39:44.202Z,9.39
2022-09-28T17:42:23.161Z,9.26
2022-09-28T17:44:55.540Z,9.17
2022-09-28T17:47:33.464Z,9.03
2022-09-28T17:50:19.774Z,8.90
2022-09-28T17:52:52.517Z,8.77
2022-09-28T17:55:29.403Z,8.66
2022-09-28T17:58:05.007Z,8.52
2022-09-28T18:00:37.375Z,8.40
2022-09-28T18:03:13.069Z,8.24
2022-09-28T18:05:48.164Z,8.07
2022-09-28T18:08:20.937Z,7.89
2022-09-28T18:10:54.568Z,7.71
2022-09-28T18:13:27.318Z,7.59
2022-09-28T18:15:59.794Z,7.58
2022-09-28T18:18:33.387Z,7.55
2022-09-28T18:21:06.858Z,7.50
2022-09-28T18:23:39.181Z,7.45
2022-09-28T18:26:12.476Z,7.39
2022-09-28T18:28:45.159Z,7.32
2022-09-28T18:31:19.087Z,7.24
2022-09-28T18:33:56.665Z,7.17
2022-09-28T18:36:32.685Z,7.13
2022-09-28T18:39:05.161Z,7.13
2022-09-28T18:41:37.440Z,7.06
2022-09-28T18:44:10.061Z,6.95
2022-09-28T18:46:42.904Z,6.86
2022-09-28T18:49:15.372Z,6.75
2022-09-28T18:51:47.822Z,6.65
2022-09-28T18:54:20.115Z,6.65
2022-09-28T18:56:56.341Z,6.62
2022-09-28T18:59:28.645Z,6.60
2022-09-28T19:02:01.647Z,6.62
2022-09-28T19:04:38.629Z,6.63
2022-09-28T19:07:10.964Z,6.60
2022-09-28T19:09:45.947Z,6.57
2022-09-28T19:12:40.822Z,6.51
2022-09-28T19:15:13.171Z,6.49
2022-09-28T19:17:49.249Z,6.45
2022-09-28T19:20:21.756Z,6.44
2022-09-28T19:22:54.097Z,6.41
2022-09-28T19:25:26.511Z,6.32
2022-09-28T19:27:58.813Z,6.29
2022-09-28T19:30:31.154Z,6.27
2022-09-28T19:33:03.445Z,6.23
2022-09-28T19:35:35.745Z,6.22
2022-09-28T19:38:10.472Z,6.21
2022-09-28T19:40:42.788Z,6.16
2022-09-28T19:43:15.169Z,6.11
2022-09-28T19:45:52.162Z,6.06
2022-09-28T19:48:28.288Z,6.02
2022-09-28T19:54:58.344Z,5.91
2022-09-28T19:57:32.787Z,5.86
2022-09-28T20:00:05.534Z,5.81
2022-09-28T20:02:37.947Z,5.78
2022-09-28T20:05:22.169Z,5.79
2022-09-28T20:08:06.118Z,5.77
2022-09-28T20:10:40.823Z,5.76
2022-09-28T20:23:52.277Z,5.89
2022-09-28T20:26:25.465Z,5.85
2022-09-28T20:28:58.186Z,5.84
2022-09-28T20:31:30.734Z,5.84
2022-09-28T20:34:03.616Z,5.80
2022-09-28T20:36:35.928Z,5.76
2022-09-28T20:39:10.167Z,5.75
2022-09-28T20:41:42.557Z,5.80
2022-09-28T20:44:14.922Z,5.82
2022-09-28T20:46:49.507Z,5.76
2022-09-28T20:49:21.893Z,5.71
2022-09-28T20:51:54.451Z,5.64
2022-09-28T20:54:26.764Z,5.62
2022-09-28T20:56:59.198Z,5.68
2022-09-28T20:59:31.588Z,5.68
2022-09-28T21:02:08.673Z,5.64
2022-09-28T21:04:41.434Z,5.64
2022-09-28T21:07:13.982Z,5.62
2022-09-28T21:09:46.588Z,5.63
2022-09-28T21:12:20.519Z,5.59
2022-09-28T21:14:53.861Z,5.57
2022-09-28T21:17:26.230Z,5.52
2022-09-28T21:19:58.599Z,5.45
2022-09-28T21:22:31.000Z,5.36
2022-09-28T21:25:03.644Z,5.30
2022-09-28T21:27:36.550Z,5.31
2022-09-28T21:30:09.614Z,5.36
2022-09-28T21:32:41.929Z,5.35
2022-09-28T21:35:14.470Z,5.37
2022-09-28T21:37:46.955Z,5.40
2022-09-28T21:40:20.440Z,5.41
2022-09-28T21:42:52.754Z,5.37
2022-09-28T21:45:25.281Z,5.36
2022-09-28T21:47:58.339Z,5.38
2022-09-28T21:50:30.968Z,5.41
2022-09-28T21:53:03.291Z,5.44
2022-09-28T21:55:35.659Z,5.52
2022-09-28T21:58:07.978Z,5.60
2022-09-28T22:00:40.589Z,5.61
2022-09-28T22:03:12.898Z,5.60
2022-09-28T22:05:45.343Z,5.60
2022-09-28T22:08:18.293Z,5.63
2022-09-28T22:11:00.495Z,5.67
2022-09-28T22:13:34.338Z,5.65
2022-09-28T22:16:07.533Z,5.65
2022-09-28T22:18:39.826Z,5.63
2022-09-28T22:21:22.904Z,5.60
2022-09-28T22:24:03.349Z,5.57
2022-09-28T22:26:38.229Z,5.54
2022-09-28T22:29:12.211Z,5.54
2022-09-28T22:31:44.713Z,5.48
2022-09-28T22:34:17.362Z,5.43
2022-09-28T22:36:49.716Z,5.41
2022-09-28T22:39:22.175Z,5.37
2022-09-28T22:41:54.610Z,5.33
2022-09-28T22:44:27.976Z,5.30
2022-09-28T22:47:00.276Z,5.35
2022-09-28T22:49:32.650Z,5.36
2022-09-28T23:04:55.753Z,5.31
2022-09-28T23:07:28.057Z,5.31
2022-09-28T23:10:02.902Z,5.26
2022-09-28T23:12:35.908Z,5.20
2022-09-28T23:15:08.872Z,5.18
2022-09-28T23:17:41.161Z,5.14
2022-09-28T23:20:13.550Z,5.19
2022-09-28T23:22:47.663Z,5.16
2022-09-28T23:25:20.004Z,5.13
2022-09-28T23:27:52.559Z,5.19
2022-09-28T23:30:26.244Z,5.23
2022-09-28T23:32:58.590Z,5.18
2022-09-28T23:35:31.497Z,5.18
2022-09-28T23:38:03.829Z,5.12
2022-09-28T23:40:40.574Z,5.09
2022-09-28T23:43:13.500Z,5.08
2022-09-28T23:45:46.017Z,5.03
2022-09-28T23:48:19.668Z,5.00
2022-09-28T23:50:52.035Z,5.02
2022-09-28T23:53:24.396Z,4.99
2022-09-28T23:55:56.750Z,5.00
2022-09-28T23:58:29.281Z,4.98
